createdAt,value
2019-02-21T00:01:18.686Z,24.60
2019-02-21T00:06:24.321Z,23.00
2019-02-21T00:11:30.498Z,22.20
2019-02-21T00:16:36.624Z,25.10
2019-02-21T00:21:42.702Z,21.30
2019-02-21T00:26:48.306Z,20.90
2019-02-21T00:31:54.620Z,19.10
2019-02-21T00:37:00.705Z,21.20
2019-02-21T00:42:06.808Z,20.97
2019-02-21T00:47:13.279Z,19.67
2019-02-21T00:52:19.372Z,19.67
2019-02-21T00:57:25.484Z,14.13
2019-02-21T01:02:31.571Z,20.05
2019-02-21T01:07:38.201Z,19.27
2019-02-21T01:12:44.119Z,21.07
2019-02-21T01:17:49.930Z,18.67
2019-02-21T01:22:55.609Z,18.63
2019-02-21T01:28:01.716Z,18.90
2019-02-21T01:33:07.379Z,18.43
2019-02-21T01:38:13.282Z,17.03
2019-02-21T01:43:18.932Z,18.13
2019-02-21T01:48:24.875Z,20.03
2019-02-21T01:53:30.555Z,19.27
2019-02-21T01:58:36.508Z,18.03
2019-02-21T02:03:42.186Z,19.47
2019-02-21T02:08:47.944Z,18.90
2019-02-21T02:13:53.567Z,16.27
2019-02-21T02:18:59.271Z,16.20
2019-02-21T02:24:04.954Z,16.87
2019-02-21T02:29:10.983Z,18.70
2019-02-21T02:34:16.872Z,19.10
2019-02-21T02:39:22.483Z,18.00
2019-02-21T02:44:28.126Z,21.30
2019-02-21T02:49:33.967Z,19.20
2019-02-21T02:54:39.580Z,17.37
2019-02-21T02:59:45.522Z,17.87
2019-02-21T03:04:51.232Z,16.70
2019-02-21T03:09:57.085Z,17.47
2019-02-21T03:15:02.677Z,16.80
2019-02-21T03:20:09.506Z,16.73
2019-02-21T03:25:15.173Z,15.98
2019-02-21T03:30:20.993Z,16.20
2019-02-21T03:35:26.671Z,16.70
2019-02-21T03:40:32.782Z,17.87
2019-02-21T03:45:38.894Z,15.60
2019-02-21T03:50:44.985Z,17.10
2019-02-21T03:55:50.698Z,16.27
2019-02-21T04:00:56.522Z,17.00
2019-02-21T04:06:02.317Z,16.77
2019-02-21T04:11:08.209Z,15.93
2019-02-21T04:16:13.826Z,16.23
2019-02-21T04:21:19.804Z,16.67
2019-02-21T04:26:25.674Z,17.77
2019-02-21T04:31:31.303Z,15.47
2019-02-21T04:36:36.929Z,13.83
2019-02-21T04:41:42.670Z,15.17
2019-02-21T04:46:48.333Z,14.47
2019-02-21T04:51:54.070Z,12.67
2019-02-21T04:56:59.674Z,12.30
2019-02-21T05:02:05.700Z,11.93
2019-02-21T05:07:11.594Z,12.00
2019-02-21T05:12:17.412Z,12.07
2019-02-21T05:17:23.517Z,11.20
2019-02-21T05:22:29.318Z,11.67
2019-02-21T05:27:37.834Z,12.43
2019-02-21T05:32:55.295Z,12.60
2019-02-21T05:38:10.128Z,12.40
2019-02-21T05:43:44.220Z,10.70
2019-02-21T05:49:17.017Z,10.77
2019-02-21T05:54:31.119Z,10.87
2019-02-21T06:00:10.806Z,11.70
2019-02-21T06:05:22.525Z,12.00
2019-02-21T06:10:59.077Z,11.17
2019-02-21T06:16:21.541Z,10.23
2019-02-21T06:21:50.897Z,9.43
2019-02-21T06:27:15.684Z,10.90
2019-02-21T06:32:21.595Z,10.37
2019-02-21T06:37:27.212Z,9.28
2019-02-21T06:42:33.009Z,10.27
2019-02-21T06:47:38.671Z,9.93
2019-02-21T06:52:44.523Z,10.07
2019-02-21T06:57:50.237Z,12.13
2019-02-21T07:02:56.444Z,9.40
2019-02-21T07:08:02.340Z,9.43
2019-02-21T07:13:07.969Z,12.33
2019-02-21T07:18:13.822Z,10.23
2019-02-21T07:23:19.978Z,11.20
2019-02-21T07:28:27.742Z,11.70
2019-02-21T07:33:33.278Z,10.93
2019-02-21T07:38:38.909Z,9.33
2019-02-21T07:43:45.229Z,11.83
2019-02-21T07:48:51.024Z,11.10
2019-02-21T07:53:56.971Z,9.80
2019-02-21T07:59:03.010Z,7.90
2019-02-21T08:04:08.775Z,11.27
2019-02-21T08:09:15.005Z,10.80
2019-02-21T08:14:20.892Z,12.63
2019-02-21T08:19:26.872Z,11.70
2019-02-21T08:24:32.517Z,11.33
2019-02-21T08:29:38.464Z,13.27
2019-02-21T08:34:48.276Z,14.27
2019-02-21T08:39:54.629Z,12.07
2019-02-21T08:45:00.378Z,12.67
2019-02-21T08:50:06.328Z,12.93
2019-02-21T08:55:11.973Z,12.27
2019-02-21T09:00:17.829Z,12.27
2019-02-21T09:05:23.739Z,14.47
2019-02-21T09:10:29.356Z,9.40
2019-02-21T09:15:35.177Z,12.50
2019-02-21T09:20:41.126Z,12.33
2019-02-21T09:25:49.492Z,11.20
2019-02-21T09:30:54.445Z,9.63
2019-02-21T09:36:00.283Z,11.60
2019-02-21T09:41:06.019Z,10.87
2019-02-21T09:46:12.571Z,9.70
2019-02-21T09:51:18.537Z,9.40
2019-02-21T09:56:30.276Z,11.97
2019-02-21T10:01:32.352Z,7.77
2019-02-21T10:06:38.382Z,9.47
2019-02-21T10:11:44.363Z,10.40
2019-02-21T10:16:50.091Z,8.90
2019-02-21T10:21:55.774Z,9.43
2019-02-21T10:27:01.698Z,9.33
2019-02-21T10:32:07.546Z,10.00
2019-02-21T10:37:13.310Z,10.50
2019-02-21T10:42:18.944Z,8.33
2019-02-21T10:47:24.626Z,7.73
2019-02-21T10:52:30.656Z,8.57
2019-02-21T10:57:36.511Z,8.47
2019-02-21T11:02:42.302Z,8.30
2019-02-21T11:07:48.531Z,10.95
2019-02-21T11:12:54.380Z,8.70
2019-02-21T11:18:00.003Z,11.07
2019-02-21T11:23:06.623Z,11.90
2019-02-21T11:28:12.784Z,8.77
2019-02-21T11:33:18.747Z,10.63
2019-02-21T11:38:25.013Z,10.93
2019-02-21T11:43:31.079Z,9.53
2019-02-21T11:48:36.698Z,10.23
2019-02-21T11:53:42.533Z,11.40
2019-02-21T11:58:48.210Z,9.37
2019-02-21T12:03:54.442Z,10.38
2019-02-21T12:09:00.370Z,9.00
2019-02-21T12:14:06.372Z,8.83
2019-02-21T12:19:12.476Z,10.40
2019-02-21T12:24:18.110Z,9.00
2019-02-21T12:29:23.840Z,10.50
2019-02-21T12:34:29.754Z,8.40
2019-02-21T12:39:36.397Z,9.67
2019-02-21T12:44:42.321Z,8.93
2019-02-21T12:49:48.552Z,10.48
2019-02-21T12:54:54.481Z,9.40
2019-02-21T13:00:00.419Z,7.97
2019-02-21T13:05:06.984Z,9.97
2019-02-21T13:15:20.571Z,8.20
2019-02-21T13:20:26.218Z,11.43
2019-02-21T13:25:31.926Z,9.23
2019-02-21T13:30:37.905Z,9.40
2019-02-21T13:35:52.237Z,9.33
2019-02-21T13:40:51.476Z,8.37
2019-02-21T13:45:58.077Z,7.25
2019-02-21T13:51:03.678Z,7.93
2019-02-21T13:56:09.482Z,8.50
2019-02-21T14:01:15.396Z,11.20
2019-02-21T14:06:21.164Z,9.57
2019-02-21T14:11:27.148Z,10.40
2019-02-21T14:16:32.965Z,10.33
2019-02-21T14:21:38.773Z,10.93
2019-02-21T14:26:44.932Z,11.30
2019-02-21T14:31:50.752Z,10.43
2019-02-21T14:36:56.485Z,13.35
2019-02-21T14:42:04.502Z,11.95
2019-02-21T14:47:10.517Z,11.93
2019-02-21T14:52:16.423Z,12.50
2019-02-21T14:57:22.093Z,12.82
2019-02-21T15:02:28.357Z,14.65
2019-02-21T15:07:34.365Z,13.47
2019-02-21T15:12:40.360Z,12.70
2019-02-21T15:17:46.595Z,13.38
2019-02-21T15:22:53.996Z,13.10
2019-02-21T15:28:00.064Z,13.40
2019-02-21T15:33:06.380Z,10.90
2019-02-21T15:38:19.900Z,11.73
2019-02-21T15:43:20.027Z,13.23
2019-02-21T15:48:26.093Z,14.07
2019-02-21T15:53:32.174Z,14.63
2019-02-21T15:58:38.309Z,15.63
2019-02-21T16:03:44.606Z,15.53
2019-02-21T16:08:50.382Z,17.07
2019-02-21T16:14:03.351Z,16.40
2019-02-21T16:19:04.391Z,16.73
2019-02-21T16:24:10.078Z,16.53
2019-02-21T16:29:16.109Z,17.43
2019-02-21T16:34:22.214Z,16.93
2019-02-21T16:39:28.349Z,16.30
2019-02-21T16:44:33.960Z,13.80
2019-02-21T16:49:39.924Z,16.67
2019-02-21T16:54:46.249Z,17.00
2019-02-21T16:59:52.190Z,15.13
2019-02-21T17:04:58.578Z,15.00
2019-02-21T17:10:04.628Z,18.07
2019-02-21T17:15:11.918Z,15.37
2019-02-21T17:20:18.150Z,11.83
2019-02-21T17:25:24.005Z,13.27
2019-02-21T17:30:29.775Z,11.25
2019-02-21T17:35:35.516Z,10.33
2019-02-21T17:40:41.338Z,11.83
2019-02-21T17:45:47.539Z,12.50
2019-02-21T17:50:53.913Z,8.43
2019-02-21T17:55:59.559Z,8.93
2019-02-21T18:01:05.612Z,8.53
2019-02-21T18:06:11.351Z,9.70
2019-02-21T18:11:17.422Z,7.10
2019-02-21T18:16:23.311Z,5.60
2019-02-21T18:21:29.413Z,5.60
2019-02-21T18:26:35.097Z,7.73
2019-02-21T18:31:41.433Z,8.83
2019-02-21T18:36:47.230Z,7.83
2019-02-21T18:41:53.463Z,6.40
2019-02-21T18:46:59.639Z,7.30
2019-02-21T18:52:05.385Z,7.50
2019-02-21T18:57:12.317Z,6.07
2019-02-21T19:02:19.931Z,8.30
2019-02-21T19:07:25.589Z,7.90
2019-02-21T19:12:31.967Z,6.45
2019-02-21T19:17:37.577Z,5.77
2019-02-21T19:22:43.388Z,7.67
2019-02-21T19:27:49.121Z,9.13
2019-02-21T19:32:54.870Z,7.83
2019-02-21T19:38:09.813Z,10.13
2019-02-21T19:43:08.015Z,10.93
2019-02-21T19:48:13.732Z,10.97
2019-02-21T19:53:19.422Z,12.23
2019-02-21T19:58:25.273Z,11.63
2019-02-21T20:03:30.880Z,10.13
2019-02-21T20:08:39.627Z,9.30
2019-02-21T20:13:45.400Z,11.60
2019-02-21T20:18:51.137Z,10.23
2019-02-21T20:23:56.768Z,12.33
2019-02-21T20:29:02.573Z,11.47
2019-02-21T20:34:08.257Z,11.50
2019-02-21T20:39:14.142Z,10.53
2019-02-21T20:44:19.748Z,11.57
2019-02-21T20:49:25.560Z,10.80
2019-02-21T20:54:31.385Z,12.10
2019-02-21T20:59:37.131Z,12.50
2019-02-21T21:04:42.838Z,13.30
2019-02-21T21:09:48.722Z,12.93
2019-02-21T21:14:54.364Z,13.73
2019-02-21T21:20:00.335Z,10.87
2019-02-21T21:25:07.180Z,16.13
2019-02-21T21:35:19.083Z,16.15
2019-02-21T21:40:25.173Z,13.80
2019-02-21T21:45:30.814Z,14.83
2019-02-21T21:50:36.512Z,16.13
2019-02-21T21:55:42.180Z,15.87
2019-02-21T22:00:48.434Z,16.60
2019-02-21T22:05:54.596Z,16.63
2019-02-21T22:11:01.105Z,14.33
2019-02-21T22:16:07.752Z,15.88
2019-02-21T22:21:14.045Z,15.58
2019-02-21T22:26:20.379Z,12.87
2019-02-21T22:31:26.732Z,12.43
2019-02-21T22:36:32.926Z,11.17
2019-02-21T22:41:39.449Z,13.30
2019-02-21T22:46:45.992Z,13.13
2019-02-21T22:51:52.171Z,13.22
2019-02-21T22:56:58.223Z,12.07
2019-02-21T23:02:04.492Z,11.43
2019-02-21T23:07:42.328Z,11.97
2019-02-21T23:17:53.312Z,13.20
2019-02-21T23:22:59.522Z,10.30
2019-02-21T23:28:06.061Z,12.75
2019-02-21T23:33:12.743Z,11.18
2019-02-21T23:38:19.342Z,11.57
2019-02-21T23:43:26.096Z,11.08
2019-02-21T23:48:32.839Z,11.97
2019-02-21T23:58:44.524Z,11.83
